createdAt,value
2017-03-22T00:00:25.555Z,1009.4
2017-03-22T00:01:25.576Z,1009.44
2017-03-22T00:02:25.593Z,1009.46
2017-03-22T00:03:25.613Z,1009.47
2017-03-22T00:05:25.652Z,1009.45
2017-03-22T00:06:25.671Z,1009.43
2017-03-22T00:07:25.689Z,1009.44
2017-03-22T00:08:25.709Z,1009.5
2017-03-22T00:09:25.729Z,1009.47
2017-03-22T00:10:25.748Z,1009.49
2017-03-22T00:11:25.769Z,1009.51
2017-03-22T00:12:25.787Z,1009.55
2017-03-22T00:13:25.806Z,1009.55
2017-03-22T00:14:25.825Z,1009.58
2017-03-22T00:15:25.843Z,1009.59
2017-03-22T00:16:25.870Z,1009.59
2017-03-22T00:17:25.883Z,1009.57
2017-03-22T00:18:25.902Z,1009.54
2017-03-22T00:19:25.922Z,1009.58
2017-03-22T00:21:25.959Z,1009.56
2017-03-22T00:22:25.979Z,1009.5
2017-03-22T00:23:25.998Z,1009.53
2017-03-22T00:24:26.016Z,1009.55
2017-03-22T00:25:26.036Z,1009.55
2017-03-22T00:26:26.054Z,1009.59
2017-03-22T00:27:26.078Z,1009.62
2017-03-22T00:28:26.094Z,1009.65
2017-03-22T00:29:26.113Z,1009.65
2017-03-22T00:30:26.131Z,1009.63
2017-03-22T00:31:26.151Z,1009.67
2017-03-22T00:32:26.170Z,1009.64
2017-03-22T00:33:26.189Z,1009.61
2017-03-22T00:34:26.209Z,1009.62
2017-03-22T00:35:26.228Z,1009.67
2017-03-22T00:37:26.264Z,1009.68
2017-03-22T00:38:26.284Z,1009.69
2017-03-22T00:39:26.304Z,1009.69
2017-03-22T00:40:26.322Z,1009.69
2017-03-22T00:41:26.342Z,1009.68
2017-03-22T00:42:26.361Z,1009.66
2017-03-22T00:43:26.380Z,1009.71
2017-03-22T00:44:26.399Z,1009.7
2017-03-22T00:45:26.447Z,1009.78
2017-03-22T00:46:26.437Z,1009.82
2017-03-22T00:47:26.455Z,1009.84
2017-03-22T00:48:26.475Z,1009.86
2017-03-22T00:49:26.494Z,1009.88
2017-03-22T00:50:26.513Z,1009.83
2017-03-22T00:51:26.531Z,1009.88
2017-03-22T00:53:26.570Z,1009.84
2017-03-22T00:54:26.589Z,1009.84
2017-03-22T00:55:26.607Z,1009.81
2017-03-22T00:56:26.627Z,1009.86
2017-03-22T00:57:26.646Z,1009.88
2017-03-22T00:58:26.665Z,1009.88
2017-03-22T00:59:26.684Z,1009.9
2017-03-22T01:00:26.702Z,1009.91
2017-03-22T01:01:26.722Z,1009.91
2017-03-22T01:02:26.741Z,1009.92
2017-03-22T01:03:26.759Z,1009.91
2017-03-22T01:04:26.779Z,1009.92
2017-03-22T01:05:26.799Z,1009.9
2017-03-22T01:06:26.817Z,1009.89
2017-03-22T01:08:26.855Z,1009.93
2017-03-22T01:09:26.873Z,1009.99
2017-03-22T01:10:26.892Z,1009.98
2017-03-22T01:11:26.911Z,1009.97
2017-03-22T01:12:26.930Z,1009.98
2017-03-22T01:13:26.949Z,1009.99
2017-03-22T01:14:26.968Z,1010.04
2017-03-22T01:15:26.985Z,1009.98
2017-03-22T01:16:27.003Z,1009.97
2017-03-22T01:17:27.023Z,1009.98
2017-03-22T01:18:27.043Z,1009.99
2017-03-22T01:19:27.062Z,1009.95
2017-03-22T01:20:27.079Z,1010.02
2017-03-22T01:21:27.098Z,1010
2017-03-22T01:22:27.119Z,1009.98
2017-03-22T01:23:27.136Z,1010.01
2017-03-22T01:24:27.154Z,1010.02
2017-03-22T01:25:27.172Z,1010.07
2017-03-22T01:26:27.191Z,1010.06
2017-03-22T01:27:27.210Z,1010.04
2017-03-22T01:28:27.229Z,1010.07
2017-03-22T01:29:27.247Z,1010.1
2017-03-22T01:30:27.266Z,1010.07
2017-03-22T01:31:27.291Z,1010.08
2017-03-22T01:32:27.303Z,1010.09
2017-03-22T01:33:27.322Z,1010.07
2017-03-22T01:34:27.340Z,1010.08
2017-03-22T01:35:27.363Z,1010.11
2017-03-22T01:36:27.377Z,1010.13
2017-03-22T01:37:27.395Z,1010.15
2017-03-22T01:38:27.413Z,1010.17
2017-03-22T01:40:27.450Z,1010.23
2017-03-22T01:41:27.469Z,1010.25
2017-03-22T01:42:27.486Z,1010.26
2017-03-22T01:43:27.506Z,1010.29
2017-03-22T01:44:27.524Z,1010.27
2017-03-22T01:45:27.542Z,1010.32
2017-03-22T01:46:27.560Z,1010.26
2017-03-22T01:47:27.579Z,1010.33
2017-03-22T01:48:27.598Z,1010.28
2017-03-22T01:49:27.616Z,1010.31
2017-03-22T01:50:27.634Z,1010.3
2017-03-22T01:51:27.652Z,1010.25
2017-03-22T01:52:27.671Z,1010.33
2017-03-22T01:53:27.689Z,1010.26
2017-03-22T01:54:27.708Z,1010.33
2017-03-22T01:56:27.744Z,1010.3
2017-03-22T01:57:27.762Z,1010.33
2017-03-22T01:58:27.779Z,1010.34
2017-03-22T01:59:27.799Z,1010.35
2017-03-22T02:00:27.816Z,1010.3
2017-03-22T02:01:27.838Z,1010.28
2017-03-22T02:02:27.853Z,1010.33
2017-03-22T02:03:27.872Z,1010.3
2017-03-22T02:04:27.890Z,1010.3
2017-03-22T02:05:27.912Z,1010.3
2017-03-22T02:06:27.926Z,1010.28
2017-03-22T02:07:27.947Z,1010.28
2017-03-22T02:08:27.963Z,1010.25
2017-03-22T02:09:27.981Z,1010.3
2017-03-22T02:10:27.999Z,1010.3
2017-03-22T02:12:28.035Z,1010.38
2017-03-22T02:13:28.054Z,1010.36
2017-03-22T02:14:28.072Z,1010.41
2017-03-22T02:15:28.089Z,1010.4
2017-03-22T02:16:28.107Z,1010.44
2017-03-22T02:17:28.126Z,1010.41
2017-03-22T02:18:28.145Z,1010.39
2017-03-22T02:19:28.162Z,1010.4
2017-03-22T02:20:28.180Z,1010.4
2017-03-22T02:21:28.198Z,1010.41
2017-03-22T02:22:28.216Z,1010.45
2017-03-22T02:23:28.234Z,1010.41
2017-03-22T02:24:28.253Z,1010.41
2017-03-22T02:25:28.272Z,1010.46
2017-03-22T02:26:28.288Z,1010.46
2017-03-22T02:28:28.325Z,1010.44
2017-03-22T02:29:28.343Z,1010.45
2017-03-22T02:30:28.360Z,1010.46
2017-03-22T02:31:28.378Z,1010.49
2017-03-22T02:32:28.397Z,1010.51
2017-03-22T02:33:28.413Z,1010.52
2017-03-22T02:34:28.432Z,1010.49
2017-03-22T02:35:28.450Z,1010.52
2017-03-22T02:36:28.469Z,1010.55
2017-03-22T02:37:28.486Z,1010.51
2017-03-22T02:38:28.504Z,1010.54
2017-03-22T02:39:28.522Z,1010.54
2017-03-22T02:40:28.540Z,1010.52
2017-03-22T02:41:28.558Z,1010.55
2017-03-22T02:43:28.595Z,1010.53
2017-03-22T02:44:28.618Z,1010.49
2017-03-22T02:45:28.630Z,1010.53
2017-03-22T02:46:28.648Z,1010.6
2017-03-22T02:47:28.667Z,1010.6
2017-03-22T02:48:28.683Z,1010.63
2017-03-22T02:49:28.701Z,1010.68
2017-03-22T02:50:28.720Z,1010.69
2017-03-22T02:51:28.737Z,1010.66
2017-03-22T02:52:28.755Z,1010.68
2017-03-22T02:53:28.774Z,1010.67
2017-03-22T02:54:28.791Z,1010.64
2017-03-22T02:55:28.808Z,1010.67
2017-03-22T02:56:28.827Z,1010.68
2017-03-22T02:57:28.845Z,1010.66
2017-03-22T02:58:28.863Z,1010.67
2017-03-22T02:59:28.880Z,1010.66
2017-03-22T03:00:28.931Z,1010.7
2017-03-22T03:01:28.916Z,1010.73
2017-03-22T03:02:28.933Z,1010.71
2017-03-22T03:03:28.952Z,1010.77
2017-03-22T03:04:28.969Z,1010.74
2017-03-22T03:05:28.987Z,1010.71
2017-03-22T03:06:29.005Z,1010.73
2017-03-22T03:07:29.023Z,1010.7
2017-03-22T03:08:29.041Z,1010.72
2017-03-22T03:09:29.059Z,1010.72
2017-03-22T03:10:29.075Z,1010.69
2017-03-22T03:11:29.094Z,1010.73
2017-03-22T03:12:29.112Z,1010.71
2017-03-22T03:13:29.130Z,1010.68
2017-03-22T03:15:29.166Z,1010.71
2017-03-22T03:16:29.184Z,1010.73
2017-03-22T03:17:29.232Z,1010.7
2017-03-22T03:18:29.219Z,1010.73
2017-03-22T03:19:29.238Z,1010.76
2017-03-22T03:20:29.255Z,1010.74
2017-03-22T03:21:29.305Z,1010.78
2017-03-22T03:22:29.289Z,1010.74
2017-03-22T03:23:29.308Z,1010.76
2017-03-22T03:24:29.326Z,1010.75
2017-03-22T03:25:29.343Z,1010.78
2017-03-22T03:26:29.362Z,1010.82
2017-03-22T03:27:29.382Z,1010.76
2017-03-22T03:28:29.397Z,1010.84
2017-03-22T03:29:29.414Z,1010.81
2017-03-22T03:31:29.451Z,1010.83
2017-03-22T03:32:29.468Z,1010.87
2017-03-22T03:33:29.487Z,1010.84
2017-03-22T03:34:29.505Z,1010.79
2017-03-22T03:35:29.524Z,1010.82
2017-03-22T03:36:29.540Z,1010.87
2017-03-22T03:37:29.558Z,1010.82
2017-03-22T03:38:29.576Z,1010.9
2017-03-22T03:39:29.593Z,1010.91
2017-03-22T03:40:29.611Z,1010.89
2017-03-22T03:41:29.633Z,1010.89
2017-03-22T03:42:29.647Z,1010.88
2017-03-22T03:43:29.665Z,1010.88
2017-03-22T03:44:29.683Z,1010.85
2017-03-22T03:45:29.701Z,1010.89
2017-03-22T03:47:29.775Z,1010.85
2017-03-22T03:48:29.758Z,1010.84
2017-03-22T03:49:29.772Z,1010.81
2017-03-22T03:50:29.789Z,1010.85
2017-03-22T03:51:29.807Z,1010.84
2017-03-22T03:52:29.825Z,1010.82
2017-03-22T03:53:29.844Z,1010.84
2017-03-22T03:54:29.861Z,1010.86
2017-03-22T03:55:29.878Z,1010.86
2017-03-22T03:56:29.898Z,1010.85
2017-03-22T03:57:29.915Z,1010.83
2017-03-22T03:58:29.933Z,1010.84
2017-03-22T03:59:29.951Z,1010.84
2017-03-22T04:00:29.968Z,1010.87
2017-03-22T04:01:29.984Z,1010.92
2017-03-22T04:03:30.022Z,1010.89
2017-03-22T04:04:30.040Z,1010.89
2017-03-22T04:05:30.057Z,1010.92
2017-03-22T04:06:30.074Z,1010.9
2017-03-22T04:07:30.093Z,1010.94
2017-03-22T04:08:30.111Z,1010.93
2017-03-22T04:09:30.128Z,1010.95
2017-03-22T04:10:30.147Z,1010.97
2017-03-22T04:11:30.164Z,1010.96
2017-03-22T04:12:30.181Z,1010.96
2017-03-22T04:13:30.199Z,1010.99
2017-03-22T04:14:30.217Z,1011.01
2017-03-22T04:15:30.236Z,1011.05
2017-03-22T04:16:30.253Z,1011.06
2017-03-22T04:18:30.292Z,1011.05
2017-03-22T04:19:30.307Z,1011.09
2017-03-22T04:20:30.329Z,1011.06
2017-03-22T04:21:30.343Z,1011.1
2017-03-22T04:22:30.360Z,1011.1
2017-03-22T04:23:30.378Z,1011.13
2017-03-22T04:24:30.396Z,1011.12
2017-03-22T04:25:30.413Z,1011.12
2017-03-22T04:26:30.429Z,1011.15
2017-03-22T04:27:30.449Z,1011.11
2017-03-22T04:28:30.467Z,1011.13
2017-03-22T04:29:30.484Z,1011.12
2017-03-22T04:30:30.502Z,1011.16
2017-03-22T04:31:30.519Z,1011.16
2017-03-22T04:32:30.538Z,1011.2
2017-03-22T04:33:30.556Z,1011.24
2017-03-22T04:34:30.573Z,1011.25
2017-03-22T04:35:30.590Z,1011.27
2017-03-22T04:36:30.608Z,1011.27
2017-03-22T04:37:30.625Z,1011.31
2017-03-22T04:38:30.643Z,1011.29
2017-03-22T04:39:30.661Z,1011.29
2017-03-22T04:40:30.680Z,1011.34
2017-03-22T04:41:30.696Z,1011.36
2017-03-22T04:42:30.713Z,1011.39
2017-03-22T04:43:30.732Z,1011.34
2017-03-22T04:44:30.749Z,1011.31
2017-03-22T04:45:30.767Z,1011.36
2017-03-22T04:46:30.784Z,1011.37
2017-03-22T04:47:30.803Z,1011.38
2017-03-22T04:48:30.819Z,1011.4
2017-03-22T04:50:30.855Z,1011.46
2017-03-22T04:51:30.872Z,1011.47
2017-03-22T04:52:30.889Z,1011.5
2017-03-22T04:53:30.907Z,1011.53
2017-03-22T04:54:30.928Z,1011.54
2017-03-22T04:55:30.942Z,1011.56
2017-03-22T04:56:30.959Z,1011.48
2017-03-22T04:57:30.977Z,1011.51
2017-03-22T04:58:30.996Z,1011.41
2017-03-22T04:59:31.011Z,1011.44
2017-03-22T05:00:31.028Z,1011.43
2017-03-22T05:01:31.046Z,1011.45
2017-03-22T05:02:31.064Z,1011.46
2017-03-22T05:03:31.081Z,1011.42
2017-03-22T05:04:31.098Z,1011.46
2017-03-22T05:06:31.133Z,1011.5
2017-03-22T05:07:31.150Z,1011.52
2017-03-22T05:08:31.168Z,1011.53
2017-03-22T05:09:31.185Z,1011.59
2017-03-22T05:10:31.203Z,1011.6
2017-03-22T05:11:31.219Z,1011.59
2017-03-22T05:12:31.236Z,1011.65
2017-03-22T05:13:31.254Z,1011.63
2017-03-22T05:14:31.271Z,1011.65
2017-03-22T05:15:31.288Z,1011.67
2017-03-22T05:16:31.306Z,1011.68
2017-03-22T05:17:31.324Z,1011.66
2017-03-22T05:18:31.340Z,1011.66
2017-03-22T05:19:31.358Z,1011.68
2017-03-22T05:20:31.375Z,1011.65
2017-03-22T05:22:31.410Z,1011.66
2017-03-22T05:23:31.428Z,1011.66
2017-03-22T05:24:31.445Z,1011.67
2017-03-22T05:25:31.461Z,1011.69
2017-03-22T05:26:31.479Z,1011.71
2017-03-22T05:27:31.502Z,1011.72
2017-03-22T05:28:31.514Z,1011.72
2017-03-22T05:29:31.531Z,1011.77
2017-03-22T05:30:31.548Z,1011.81
2017-03-22T05:31:31.565Z,1011.76
2017-03-22T05:32:31.582Z,1011.78
2017-03-22T05:33:31.601Z,1011.76
2017-03-22T05:34:31.620Z,1011.79
2017-03-22T05:35:31.635Z,1011.8
2017-03-22T05:36:31.653Z,1011.76
2017-03-22T05:38:31.687Z,1011.74
2017-03-22T05:39:31.705Z,1011.74
2017-03-22T05:40:31.722Z,1011.75
2017-03-22T05:41:31.742Z,1011.73
2017-03-22T05:42:31.757Z,1011.74
2017-03-22T05:43:31.774Z,1011.79
2017-03-22T05:44:31.791Z,1011.77
2017-03-22T05:45:31.810Z,1011.79
2017-03-22T05:46:31.827Z,1011.84
2017-03-22T05:47:31.843Z,1011.81
2017-03-22T05:48:31.862Z,1011.85
2017-03-22T05:49:31.885Z,1011.84
2017-03-22T05:50:31.897Z,1011.79
2017-03-22T05:51:31.916Z,1011.84
2017-03-22T05:53:31.949Z,1011.84
2017-03-22T05:54:31.966Z,1011.87
2017-03-22T05:55:31.984Z,1011.88
2017-03-22T05:56:32.003Z,1011.9
2017-03-22T05:57:32.021Z,1011.86
2017-03-22T05:58:32.044Z,1011.88
2017-03-22T05:59:32.055Z,1011.85
2017-03-22T06:00:32.072Z,1011.89
2017-03-22T06:01:32.090Z,1011.87
2017-03-22T06:02:32.108Z,1011.84
2017-03-22T06:03:32.127Z,1011.88
2017-03-22T06:04:32.144Z,1011.86
2017-03-22T06:05:32.161Z,1011.85
2017-03-22T06:06:32.179Z,1011.9
2017-03-22T06:07:32.198Z,1011.86
2017-03-22T06:08:32.216Z,1011.87
2017-03-22T06:09:32.232Z,1011.84
2017-03-22T06:10:32.256Z,1011.86
2017-03-22T06:11:32.269Z,1011.94
2017-03-22T06:12:32.286Z,1011.92
2017-03-22T06:13:32.305Z,1011.93
2017-03-22T06:14:32.323Z,1011.89
2017-03-22T06:15:32.341Z,1011.92
2017-03-22T06:16:32.359Z,1011.92
2017-03-22T06:17:32.378Z,1011.92
2017-03-22T06:18:32.396Z,1011.95
2017-03-22T06:19:32.414Z,1011.99
2017-03-22T06:20:32.432Z,1011.99
2017-03-22T06:21:32.451Z,1012.05
2017-03-22T06:22:32.570Z,1011.96
2017-03-22T06:23:32.488Z,1011.98
2017-03-22T06:25:32.525Z,1012.07
2017-03-22T06:26:32.545Z,1012.02
2017-03-22T06:27:32.563Z,1012.06
2017-03-22T06:28:32.582Z,1012.1
2017-03-22T06:29:32.601Z,1012.12
2017-03-22T06:30:32.620Z,1012.12
2017-03-22T06:31:32.639Z,1012.19
2017-03-22T06:32:32.660Z,1012.16
2017-03-22T06:33:32.679Z,1012.25
2017-03-22T06:34:32.697Z,1012.21
2017-03-22T06:35:32.718Z,1012.28
2017-03-22T06:36:32.738Z,1012.29
2017-03-22T06:37:32.763Z,1012.31
2017-03-22T06:38:32.778Z,1012.42
2017-03-22T06:39:32.798Z,1012.44
2017-03-22T06:41:32.840Z,1012.49
2017-03-22T06:42:32.861Z,1012.48
2017-03-22T06:43:32.883Z,1012.48
2017-03-22T06:44:32.905Z,1012.5
2017-03-22T06:45:32.927Z,1012.45
2017-03-22T06:46:32.948Z,1012.49
2017-03-22T06:47:32.971Z,1012.54
2017-03-22T06:48:32.993Z,1012.43
2017-03-22T06:49:33.014Z,1012.49
2017-03-22T06:50:33.037Z,1012.6
2017-03-22T06:51:33.060Z,1012.56
2017-03-22T06:52:33.082Z,1012.56
2017-03-22T06:53:33.105Z,1012.6
2017-03-22T06:54:33.126Z,1012.58
2017-03-22T06:55:33.149Z,1012.69
2017-03-22T06:57:33.193Z,1012.75
2017-03-22T06:58:33.217Z,1012.73
2017-03-22T06:59:33.238Z,1012.78
2017-03-22T07:00:33.561Z,1012.94
2017-03-22T07:01:33.282Z,1012.83
2017-03-22T07:02:33.306Z,1012.92
2017-03-22T07:03:33.329Z,1013.04
2017-03-22T07:04:33.351Z,1013.14
2017-03-22T07:05:33.375Z,1013.23
2017-03-22T07:06:33.399Z,1013
2017-03-22T07:07:33.422Z,1013.08
2017-03-22T07:08:33.447Z,1012.99
2017-03-22T07:09:33.472Z,1013.08
2017-03-22T07:10:33.495Z,1013.08
2017-03-22T07:11:33.518Z,1013.01
2017-03-22T07:13:33.569Z,1013.06
2017-03-22T07:14:33.595Z,1012.96
2017-03-22T07:15:33.619Z,1012.99
2017-03-22T07:16:33.643Z,1013.04
2017-03-22T07:17:33.668Z,1012.98
2017-03-22T07:18:33.693Z,1013.19
2017-03-22T07:19:33.719Z,1013.18
2017-03-22T07:20:33.745Z,1013.25
2017-03-22T07:21:33.769Z,1013.33
2017-03-22T07:22:33.796Z,1013.42
2017-03-22T07:23:33.820Z,1013.44
2017-03-22T07:24:33.846Z,1013.39
2017-03-22T07:25:33.872Z,1013.37
2017-03-22T07:26:33.898Z,1013.43
2017-03-22T07:28:33.953Z,1013.5
2017-03-22T07:29:33.979Z,1013.48
2017-03-22T07:30:34.006Z,1013.42
2017-03-22T07:31:34.033Z,1013.41
2017-03-22T07:32:34.062Z,1013.42
2017-03-22T07:33:34.088Z,1013.46
2017-03-22T07:34:34.116Z,1013.35
2017-03-22T07:35:34.144Z,1013.34
2017-03-22T07:36:34.172Z,1013.28
2017-03-22T07:37:34.200Z,1013.25
2017-03-22T07:38:34.229Z,1013.22
2017-03-22T07:39:34.257Z,1013.19
2017-03-22T07:40:34.284Z,1013.29
2017-03-22T07:41:34.313Z,1013.24
2017-03-22T07:42:34.342Z,1013.23
2017-03-22T07:43:34.371Z,1013.15
2017-03-22T07:44:34.400Z,1013.24
2017-03-22T07:45:34.426Z,1013.16
2017-03-22T07:46:34.455Z,1013.26
2017-03-22T07:47:34.488Z,1013.2
2017-03-22T07:48:34.511Z,1013.25
2017-03-22T07:49:34.540Z,1013.15
2017-03-22T07:50:34.567Z,1013.13
2017-03-22T07:51:34.594Z,1013.05
2017-03-22T07:52:34.623Z,1013.09
2017-03-22T07:53:34.651Z,1013.13
2017-03-22T07:54:34.680Z,1013.11
2017-03-22T07:55:34.706Z,1013.08
2017-03-22T07:56:34.733Z,1013.12
2017-03-22T07:57:34.762Z,1013.14
2017-03-22T07:58:34.789Z,1013.14
2017-03-22T08:00:34.845Z,1013.13
2017-03-22T08:01:34.872Z,1013.15
2017-03-22T08:02:34.900Z,1013.15
2017-03-22T08:03:34.930Z,1013.14
2017-03-22T08:04:34.957Z,1013.16
2017-03-22T08:05:34.984Z,1013.17
2017-03-22T08:06:35.012Z,1013.12
2017-03-22T08:07:35.041Z,1013.17
2017-03-22T08:08:35.069Z,1013.17
2017-03-22T08:09:35.095Z,1013.17
2017-03-22T08:10:35.125Z,1013.18
2017-03-22T08:11:35.152Z,1013.19
2017-03-22T08:12:35.182Z,1013.21
2017-03-22T08:13:35.209Z,1013.21
2017-03-22T08:14:35.237Z,1013.23
2017-03-22T08:16:35.294Z,1013.25
2017-03-22T08:17:35.322Z,1013.27
2017-03-22T08:18:35.350Z,1013.28
2017-03-22T08:19:35.378Z,1013.29
2017-03-22T08:20:35.405Z,1013.27
2017-03-22T08:21:35.434Z,1013.23
2017-03-22T08:22:35.463Z,1013.27
2017-03-22T08:23:35.492Z,1013.26
2017-03-22T08:24:35.519Z,1013.3
2017-03-22T08:25:35.548Z,1013.3
2017-03-22T08:26:35.576Z,1013.31
2017-03-22T08:27:35.604Z,1013.33
2017-03-22T08:28:35.632Z,1013.35
2017-03-22T08:29:35.660Z,1013.39
2017-03-22T08:30:35.691Z,1013.36
2017-03-22T08:32:35.745Z,1013.4
2017-03-22T08:33:35.774Z,1013.38
2017-03-22T08:34:35.803Z,1013.45
2017-03-22T08:35:35.830Z,1013.45
2017-03-22T08:36:35.859Z,1013.41
2017-03-22T08:37:35.890Z,1013.45
2017-03-22T08:38:35.916Z,1013.48
2017-03-22T08:39:35.943Z,1013.44
2017-03-22T08:40:35.972Z,1013.46
2017-03-22T08:41:36.000Z,1013.5
2017-03-22T08:42:36.028Z,1013.48
2017-03-22T08:43:36.057Z,1013.52
2017-03-22T08:44:36.085Z,1013.53
2017-03-22T08:45:36.114Z,1013.5
2017-03-22T08:46:36.141Z,1013.57
2017-03-22T08:48:36.197Z,1013.62
2017-03-22T08:49:36.226Z,1013.56
2017-03-22T08:50:36.252Z,1013.58
2017-03-22T08:51:36.282Z,1013.55
2017-03-22T08:52:36.310Z,1013.55
2017-03-22T08:53:36.335Z,1013.57
2017-03-22T08:54:36.362Z,1013.55
2017-03-22T08:55:36.391Z,1013.62
2017-03-22T08:56:36.416Z,1013.62
2017-03-22T08:57:36.443Z,1013.61
2017-03-22T08:58:36.472Z,1013.65
2017-03-22T08:59:36.496Z,1013.69
2017-03-22T09:00:36.572Z,1013.68
2017-03-22T09:01:36.548Z,1013.73
2017-03-22T09:03:36.602Z,1013.73
2017-03-22T09:04:36.627Z,1013.75
2017-03-22T09:05:36.653Z,1013.75
2017-03-22T09:06:36.680Z,1013.78
2017-03-22T09:07:36.706Z,1013.74
2017-03-22T09:08:36.732Z,1013.76
2017-03-22T09:09:36.759Z,1013.76
2017-03-22T09:10:36.786Z,1013.74
2017-03-22T09:11:36.812Z,1013.76
2017-03-22T09:12:36.839Z,1013.75
2017-03-22T09:13:36.865Z,1013.72
2017-03-22T09:14:36.893Z,1013.73
2017-03-22T09:15:36.919Z,1013.74
2017-03-22T09:16:36.948Z,1013.74
2017-03-22T09:17:36.973Z,1013.74
2017-03-22T09:18:36.999Z,1013.74
2017-03-22T09:19:37.026Z,1013.68
2017-03-22T09:20:37.054Z,1013.72
2017-03-22T09:21:37.081Z,1013.73
2017-03-22T09:22:37.107Z,1013.71
2017-03-22T09:23:37.134Z,1013.73
2017-03-22T09:24:37.161Z,1013.75
2017-03-22T09:25:37.188Z,1013.76
2017-03-22T09:26:37.214Z,1013.74
2017-03-22T09:27:37.242Z,1013.72
2017-03-22T09:28:37.268Z,1013.75
2017-03-22T09:29:37.301Z,1013.72
2017-03-22T09:30:37.322Z,1013.72
2017-03-22T09:31:37.349Z,1013.73
2017-03-22T09:32:37.376Z,1013.72
2017-03-22T09:33:37.402Z,1013.72
2017-03-22T09:35:37.456Z,1013.72
2017-03-22T09:36:37.483Z,1013.72
2017-03-22T09:37:37.510Z,1013.74
2017-03-22T09:38:37.537Z,1013.74
2017-03-22T09:39:37.563Z,1013.77
2017-03-22T09:40:37.592Z,1013.72
2017-03-22T09:41:37.618Z,1013.72
2017-03-22T09:42:37.645Z,1013.75
2017-03-22T09:43:37.673Z,1013.75
2017-03-22T09:44:37.700Z,1013.76
2017-03-22T09:45:37.726Z,1013.76
2017-03-22T09:46:37.754Z,1013.77
2017-03-22T09:47:37.782Z,1013.72
2017-03-22T09:48:37.808Z,1013.78
2017-03-22T09:49:37.836Z,1013.78
2017-03-22T09:51:37.891Z,1013.8
2017-03-22T09:52:37.917Z,1013.73
2017-03-22T09:53:37.946Z,1013.79
2017-03-22T09:54:37.973Z,1013.76
2017-03-22T09:55:38.001Z,1013.74
2017-03-22T09:56:38.028Z,1013.73
2017-03-22T09:57:38.061Z,1013.73
2017-03-22T09:58:38.082Z,1013.73
2017-03-22T09:59:38.109Z,1013.68
2017-03-22T10:00:38.137Z,1013.66
2017-03-22T10:01:38.164Z,1013.64
2017-03-22T10:02:38.191Z,1013.62
2017-03-22T10:03:38.218Z,1013.66
2017-03-22T10:04:38.245Z,1013.64
2017-03-22T10:05:38.272Z,1013.67
2017-03-22T10:07:38.326Z,1013.71
2017-03-22T10:08:38.353Z,1013.72
2017-03-22T10:09:38.380Z,1013.73
2017-03-22T10:10:38.405Z,1013.68
2017-03-22T10:11:38.436Z,1013.74
2017-03-22T10:12:38.460Z,1013.73
2017-03-22T10:13:38.487Z,1013.74
2017-03-22T10:14:38.515Z,1013.71
2017-03-22T10:15:38.540Z,1013.76
2017-03-22T10:16:38.567Z,1013.78
2017-03-22T10:17:38.594Z,1013.76
2017-03-22T10:18:38.620Z,1013.76
2017-03-22T10:19:38.674Z,1013.76
2017-03-22T10:20:38.674Z,1013.69
2017-03-22T10:21:38.700Z,1013.73
2017-03-22T10:23:38.754Z,1013.71
2017-03-22T10:24:38.781Z,1013.71
2017-03-22T10:25:38.807Z,1013.73
2017-03-22T10:26:38.834Z,1013.7
2017-03-22T10:27:38.861Z,1013.71
2017-03-22T10:28:38.887Z,1013.69
2017-03-22T10:29:38.912Z,1013.72
2017-03-22T10:30:38.940Z,1013.75
2017-03-22T10:31:38.966Z,1013.75
2017-03-22T10:32:38.993Z,1013.72
2017-03-22T10:33:39.019Z,1013.71
2017-03-22T10:34:39.046Z,1013.73
2017-03-22T10:35:39.073Z,1013.7
2017-03-22T10:36:39.100Z,1013.72
2017-03-22T10:38:39.152Z,1013.76
2017-03-22T10:39:39.178Z,1013.74
2017-03-22T10:40:39.204Z,1013.77
2017-03-22T10:41:39.231Z,1013.84
2017-03-22T10:42:39.257Z,1013.81
2017-03-22T10:43:39.282Z,1013.84
2017-03-22T10:44:39.307Z,1013.81
2017-03-22T10:45:39.333Z,1013.83
2017-03-22T10:46:39.358Z,1013.81
2017-03-22T10:47:39.384Z,1013.85
2017-03-22T10:48:39.411Z,1013.8
2017-03-22T10:49:39.436Z,1013.74
2017-03-22T10:50:39.462Z,1013.78
2017-03-22T10:51:39.487Z,1013.71
2017-03-22T10:52:39.513Z,1013.75
2017-03-22T10:53:39.538Z,1013.73
2017-03-22T10:54:39.563Z,1013.67
2017-03-22T10:55:39.589Z,1013.68
2017-03-22T10:56:39.614Z,1013.7
2017-03-22T10:57:39.639Z,1013.73
2017-03-22T10:58:39.665Z,1013.73
2017-03-22T10:59:39.691Z,1013.75
2017-03-22T11:00:39.715Z,1013.72
2017-03-22T11:01:39.740Z,1013.73
2017-03-22T11:02:39.764Z,1013.77
2017-03-22T11:03:39.790Z,1013.79
2017-03-22T11:04:39.817Z,1013.78
2017-03-22T11:05:39.840Z,1013.73
2017-03-22T11:06:39.866Z,1013.69
2017-03-22T11:07:39.891Z,1013.69
2017-03-22T11:08:39.915Z,1013.72
2017-03-22T11:10:39.965Z,1013.66
2017-03-22T11:11:39.990Z,1013.62
2017-03-22T11:12:40.014Z,1013.68
2017-03-22T11:13:40.039Z,1013.7
2017-03-22T11:14:40.064Z,1013.66
2017-03-22T11:15:40.090Z,1013.62
2017-03-22T11:16:40.113Z,1013.62
2017-03-22T11:17:40.138Z,1013.65
2017-03-22T11:18:40.164Z,1013.6
2017-03-22T11:19:40.188Z,1013.58
2017-03-22T11:20:40.212Z,1013.6
2017-03-22T11:21:40.237Z,1013.63
2017-03-22T11:22:40.262Z,1013.58
2017-03-22T11:23:40.286Z,1013.58
2017-03-22T11:24:40.310Z,1013.61
2017-03-22T11:26:40.361Z,1013.64
2017-03-22T11:27:40.384Z,1013.61
2017-03-22T11:28:40.409Z,1013.61
2017-03-22T11:29:40.434Z,1013.61
2017-03-22T11:30:40.457Z,1013.57
2017-03-22T11:31:40.482Z,1013.59
2017-03-22T11:32:40.507Z,1013.59
2017-03-22T11:33:40.531Z,1013.54
2017-03-22T11:34:40.556Z,1013.51
2017-03-22T11:35:40.583Z,1013.55
2017-03-22T11:36:40.609Z,1013.61
2017-03-22T11:37:40.630Z,1013.47
2017-03-22T11:38:40.653Z,1013.5
2017-03-22T11:39:40.678Z,1013.5
2017-03-22T11:40:40.703Z,1013.49
2017-03-22T11:42:40.751Z,1013.5
2017-03-22T11:43:40.776Z,1013.5
2017-03-22T11:44:40.800Z,1013.47
2017-03-22T11:45:40.824Z,1013.47
2017-03-22T11:46:40.848Z,1013.54
2017-03-22T11:47:40.873Z,1013.53
2017-03-22T11:48:40.900Z,1013.52
2017-03-22T11:49:40.921Z,1013.47
2017-03-22T11:50:40.950Z,1013.47
2017-03-22T11:51:40.971Z,1013.44
2017-03-22T11:52:40.994Z,1013.43
2017-03-22T11:53:41.018Z,1013.44
2017-03-22T11:54:41.043Z,1013.45
2017-03-22T11:55:41.068Z,1013.42
2017-03-22T11:56:41.091Z,1013.42
2017-03-22T11:58:41.141Z,1013.42
2017-03-22T11:59:41.164Z,1013.46
2017-03-22T12:00:41.188Z,1013.44
2017-03-22T12:01:41.213Z,1013.49
2017-03-22T12:02:41.237Z,1013.48
2017-03-22T12:03:41.311Z,1013.48
2017-03-22T12:04:41.286Z,1013.5
2017-03-22T12:05:41.310Z,1013.54
2017-03-22T12:06:41.336Z,1013.53
2017-03-22T12:07:41.357Z,1013.51
2017-03-22T12:08:41.381Z,1013.49
2017-03-22T12:09:41.407Z,1013.47
2017-03-22T12:10:41.431Z,1013.48
2017-03-22T12:11:41.455Z,1013.45
2017-03-22T12:13:41.503Z,1013.47
2017-03-22T12:14:41.527Z,1013.46
2017-03-22T12:15:41.552Z,1013.51
2017-03-22T12:16:41.576Z,1013.5
2017-03-22T12:17:41.600Z,1013.47
2017-03-22T12:18:41.625Z,1013.46
2017-03-22T12:19:41.649Z,1013.46
2017-03-22T12:20:41.673Z,1013.51
2017-03-22T12:21:41.697Z,1013.48
2017-03-22T12:22:41.721Z,1013.5
2017-03-22T12:23:41.746Z,1013.5
2017-03-22T12:24:41.771Z,1013.46
2017-03-22T12:25:41.844Z,1013.45
2017-03-22T12:26:41.818Z,1013.45
2017-03-22T12:27:41.842Z,1013.46
2017-03-22T12:28:41.867Z,1013.44
2017-03-22T12:29:41.890Z,1013.41
2017-03-22T12:30:41.917Z,1013.44
2017-03-22T12:31:41.940Z,1013.37
2017-03-22T12:32:41.963Z,1013.39
2017-03-22T12:33:41.993Z,1013.42
2017-03-22T12:34:42.011Z,1013.39
2017-03-22T12:35:42.037Z,1013.45
2017-03-22T12:36:42.059Z,1013.43
2017-03-22T12:37:42.084Z,1013.41
2017-03-22T12:38:42.109Z,1013.38
2017-03-22T12:39:42.133Z,1013.37
2017-03-22T12:40:42.156Z,1013.36
2017-03-22T12:41:42.182Z,1013.36
2017-03-22T12:42:42.205Z,1013.36
2017-03-22T12:43:42.230Z,1013.33
2017-03-22T12:45:42.278Z,1013.35
2017-03-22T12:46:42.303Z,1013.35
2017-03-22T12:47:42.325Z,1013.36
2017-03-22T12:48:42.952Z,1013.38